Time;durP1;ratioP1;P1;durP2;ratioP2;P2;SDS_P1;SDS_P2;PMS_P1;PMS_P2;Temp;Humidity;BMP_temperature;BMP_pressure;BME280_temperature;BME280_humidity;BME280_pressure;Samples;Min_cycle;Max_cycle;Signal;HPM_P1;HPM_P2
2023/01/10 00:00:35;;;;;;;17.13;6.00;;;6.20;99.90;;;;;;6246650;22;20016;-93
2023/01/10 00:03:04;;;;;;;16.10;6.05;;;6.20;99.90;;;;;;6246638;22;20329;-93
2023/01/10 00:05:30;;;;;;;22.35;7.70;;;6.20;99.90;;;;;;6247073;22;20003;-93
2023/01/10 00:07:55;;;;;;;21.38;8.30;;;6.10;99.90;;;;;;6272960;22;20003;-93
2023/01/10 00:10:21;;;;;;;19.33;7.53;;;6.00;99.90;;;;;;6246099;22;20007;-93
2023/01/10 00:15:32;;;;;;;14.77;5.50;;;6.10;99.90;;;;;;6273889;22;20466;-92
2023/01/10 00:17:58;;;;;;;13.38;4.95;;;6.10;99.90;;;;;;6246198;22;20027;-93
2023/01/10 00:20:24;;;;;;;21.77;5.93;;;6.10;99.90;;;;;;6245845;22;20460;-92
2023/01/10 00:22:50;;;;;;;16.17;5.43;;;6.10;99.90;;;;;;6245846;22;20344;-94
2023/01/10 00:25:18;;;;;;;12.88;4.93;;;6.20;99.90;;;;;;6263649;22;20018;-92
2023/01/10 00:27:48;;;;;;;17.20;4.93;;;6.20;99.90;;;;;;6272527;22;20433;-93
2023/01/10 00:30:14;;;;;;;20.40;5.32;;;6.30;99.90;;;;;;6271577;22;20196;-92
2023/01/10 00:32:44;;;;;;;17.30;4.53;;;6.30;99.90;;;;;;6271508;22;20008;-93
2023/01/10 00:35:11;;;;;;;13.10;4.38;;;6.40;99.90;;;;;;6272935;22;20000;-93
2023/01/10 00:37:38;;;;;;;21.45;5.60;;;6.40;99.90;;;;;;6271127;22;20031;-93
2023/01/10 00:40:08;;;;;;;16.05;4.68;;;6.40;99.90;;;;;;6272044;22;20015;-93
2023/01/10 00:45:21;;;;;;;19.13;4.82;;;6.50;99.90;;;;;;6272956;22;20011;-93
2023/01/10 00:47:47;;;;;;;23.75;5.07;;;6.60;99.90;;;;;;6271737;22;20305;-92
2023/01/10 00:50:13;;;;;;;18.17;5.40;;;6.60;99.90;;;;;;6272858;22;20003;-92
2023/01/10 00:52:39;;;;;;;16.02;5.10;;;6.60;99.90;;;;;;6272709;22;20436;-92
2023/01/10 00:55:09;;;;;;;20.98;5.35;;;6.60;99.90;;;;;;6272166;22;20031;-90
2023/01/10 00:57:35;;;;;;;17.27;5.57;;;6.70;99.90;;;;;;6272151;22;20007;-93
2023/01/10 01:00:01;;;;;;;23.70;6.00;;;6.70;99.90;;;;;;6273564;22;20015;-92
2023/01/10 01:02:26;;;;;;;20.88;5.93;;;6.70;99.90;;;;;;6271535;22;20000;-93
2023/01/10 01:04:52;;;;;;;17.85;6.50;;;6.70;99.90;;;;;;6270976;22;20007;-93
2023/01/10 01:07:18;;;;;;;21.60;6.30;;;6.70;99.90;;;;;;6270910;22;20031;-91
2023/01/10 01:12:27;;;;;;;20.92;5.80;;;6.70;99.90;;;;;;6272481;22;20015;-93
2023/01/10 01:14:53;;;;;;;16.42;6.63;;;6.60;99.90;;;;;;6271467;22;20003;-92
2023/01/10 01:17:19;;;;;;;15.60;5.22;;;6.60;99.90;;;;;;6271228;22;20012;-94
2023/01/10 01:19:44;;;;;;;20.15;5.60;;;6.70;99.90;;;;;;6272310;22;20012;-92
2023/01/10 01:22:10;;;;;;;18.98;5.05;;;6.70;99.90;;;;;;6271388;22;20493;-92
2023/01/10 01:24:39;;;;;;;15.10;5.15;;;6.70;99.90;;;;;;6274192;22;20412;-94
2023/01/10 01:27:05;;;;;;;20.15;5.43;;;6.70;99.90;;;;;;6273752;22;20004;-92
2023/01/10 01:29:31;;;;;;;17.88;4.80;;;6.70;99.90;;;;;;6272975;22;20091;-93
2023/01/10 01:31:57;;;;;;;17.02;5.30;;;6.70;99.90;;;;;;6274453;22;20049;-93
2023/01/10 01:34:23;;;;;;;18.83;4.85;;;6.70;99.90;;;;;;6274283;22;20075;-92
2023/01/10 01:36:50;;;;;;;18.13;4.43;;;6.80;99.90;;;;;;6274490;22;19996;-91
2023/01/10 01:39:18;;;;;;;16.70;4.70;;;6.80;99.90;;;;;;6272691;22;20422;-93
2023/01/10 01:41:56;;;;;;;16.88;6.32;;;6.80;99.90;;;;;;6273181;22;20000;-92
2023/01/10 01:44:23;;;;;;;18.17;5.22;;;6.80;99.90;;;;;;6272560;22;20317;-93
2023/01/10 01:47:04;;;;;;;18.38;5.13;;;6.80;99.90;;;;;;6272460;22;20014;-93
2023/01/10 01:49:33;;;;;;;15.88;4.35;;;6.90;99.90;;;;;;6274430;22;20420;-92
2023/01/10 01:52:04;;;;;;;21.17;4.78;;;6.80;99.90;;;;;;6274085;22;20011;-93
2023/01/10 01:54:31;;;;;;;18.90;4.32;;;6.80;99.90;;;;;;6274309;22;20000;-93
2023/01/10 01:57:08;;;;;;;21.25;4.72;;;6.90;99.90;;;;;;6272996;22;20011;-93
2023/01/10 01:59:43;;;;;;;15.18;3.63;;;6.90;99.90;;;;;;6273371;22;20039;-94
2023/01/10 02:02:31;;;;;;;14.23;3.97;;;7.00;99.90;;;;;;6272804;22;20091;-93
2023/01/10 02:05:04;;;;;;;15.48;4.07;;;7.00;99.90;;;;;;6272831;22;20051;-92
2023/01/10 02:07:36;;;;;;;16.45;3.85;;;7.00;99.90;;;;;;6272546;22;20004;-93
2023/01/10 02:10:20;;;;;;;12.65;3.53;;;7.00;99.90;;;;;;6272736;22;20000;-93
2023/01/10 02:12:49;;;;;;;21.00;4.07;;;7.00;99.90;;;;;;6274092;22;20022;-93
2023/01/10 02:15:16;;;;;;;18.25;4.25;;;7.00;99.90;;;;;;6272414;22;20458;-93
2023/01/10 02:17:42;;;;;;;20.10;4.47;;;7.00;99.90;;;;;;6273886;22;20122;-93
2023/01/10 02:20:12;;;;;;;13.95;3.58;;;7.10;99.90;;;;;;6274650;22;20065;-93
2023/01/10 02:23:16;;;;;;;16.88;4.03;;;7.10;99.90;;;;;;6273417;22;20459;-93
2023/01/10 02:26:10;;;;;;;19.73;4.38;;;7.10;99.90;;;;;;6189953;22;20444;-93
2023/01/10 02:29:03;;;;;;;16.17;3.97;;;7.10;99.90;;;;;;6274556;22;20000;-92
2023/01/10 02:31:35;;;;;;;13.98;3.80;;;7.10;99.90;;;;;;6274383;22;20396;-94
2023/01/10 02:34:12;;;;;;;18.50;4.25;;;7.10;99.90;;;;;;6272288;22;20340;-93
2023/01/10 02:36:43;;;;;;;14.43;4.57;;;7.10;99.90;;;;;;6274876;22;20004;-94
2023/01/10 02:39:30;;;;;;;16.52;4.32;;;7.30;99.90;;;;;;6273092;22;20004;-93
2023/01/10 02:42:29;;;;;;;16.50;3.47;;;7.20;99.90;;;;;;6273782;22;20038;-93
2023/01/10 02:45:08;;;;;;;17.90;4.15;;;7.20;99.90;;;;;;6190139;22;20008;-92
2023/01/10 02:47:41;;;;;;;20.88;4.22;;;7.20;99.90;;;;;;6272113;22;19999;-93
2023/01/10 02:50:40;;;;;;;17.17;4.05;;;7.30;99.90;;;;;;6274762;22;20071;-93
2023/01/10 02:53:16;;;;;;;14.65;3.63;;;7.30;99.90;;;;;;6272817;22;20003;-92
2023/01/10 02:56:11;;;;;;;18.58;3.50;;;7.30;99.90;;;;;;6273403;22;19995;-92
2023/01/10 02:58:58;;;;;;;19.15;3.90;;;7.60;99.90;;;;;;6272712;22;20456;-91
2023/01/10 03:01:42;;;;;;;13.88;3.63;;;7.30;99.90;;;;;;6271965;22;20133;-93
2023/01/10 03:04:30;;;;;;;21.20;4.10;;;7.30;99.90;;;;;;6272928;22;20035;-93
2023/01/10 03:07:28;;;;;;;20.33;4.43;;;7.30;99.90;;;;;;6272102;22;19999;-93
2023/01/10 03:10:18;;;;;;;13.82;3.88;;;7.40;99.90;;;;;;6271149;22;20028;-90
2023/01/10 03:13:01;;;;;;;14.27;3.45;;;7.40;99.90;;;;;;6251945;22;20340;-92
2023/01/10 03:15:34;;;;;;;16.65;3.90;;;7.40;99.90;;;;;;6271649;22;20006;-94
2023/01/10 03:18:03;;;;;;;17.63;3.95;;;7.40;99.90;;;;;;6271658;22;20010;-93
2023/01/10 03:20:33;;;;;;;17.02;4.22;;;7.40;99.90;;;;;;6273132;22;20011;-92
2023/01/10 03:23:01;;;;;;;11.35;3.45;;;7.50;99.90;;;;;;6272415;22;20006;-93
2023/01/10 03:25:33;;;;;;;17.65;3.95;;;7.50;99.90;;;;;;6271472;22;20011;-93
2023/01/10 03:28:10;;;;;;;15.43;3.97;;;7.50;99.90;;;;;;6273204;22;20428;-92
2023/01/10 03:30:48;;;;;;;18.73;3.95;;;7.50;99.90;;;;;;6273421;22;20008;-94
2023/01/10 03:33:20;;;;;;;22.45;4.43;;;7.50;99.90;;;;;;6271388;22;20000;-92
2023/01/10 03:36:03;;;;;;;21.92;4.20;;;7.80;99.90;;;;;;6271312;22;20394;-92
2023/01/10 03:38:43;;;;;;;17.08;3.78;;;7.60;99.90;;;;;;6271549;22;20031;-94
2023/01/10 03:41:18;;;;;;;13.68;3.53;;;7.60;99.90;;;;;;6274021;22;20042;-93
2023/01/10 03:47:06;;;;;;;12.80;3.40;;;7.50;99.90;;;;;;6272772;22;20340;-94
2023/01/10 03:49:36;;;;;;;16.63;3.97;;;7.70;99.90;;;;;;6272094;22;20010;-94
2023/01/10 03:52:04;;;;;;;19.50;4.10;;;7.90;99.90;;;;;;6273153;22;20507;-93
2023/01/10 03:54:30;;;;;;;21.17;4.03;;;7.70;99.90;;;;;;6273030;22;19996;-92
2023/01/10 03:56:56;;;;;;;16.05;4.10;;;7.70;99.90;;;;;;6273001;22;20004;-95
2023/01/10 03:59:25;;;;;;;16.20;3.72;;;7.80;99.90;;;;;;6272668;22;20348;-93
2023/01/10 04:01:53;;;;;;;16.70;3.67;;;7.70;99.90;;;;;;6271416;22;20004;-93
2023/01/10 04:04:18;;;;;;;16.45;3.40;;;8.00;99.90;;;;;;6273060;22;20022;-92
2023/01/10 04:06:44;;;;;;;19.48;4.18;;;7.80;99.90;;;;;;6273587;22;20446;-93
2023/01/10 04:09:10;;;;;;;18.80;4.55;;;7.80;99.90;;;;;;6274522;22;20000;-94
2023/01/10 04:11:36;;;;;;;19.10;4.40;;;7.80;99.90;;;;;;6272520;22;20019;-93
2023/01/10 04:14:02;;;;;;;14.75;3.55;;;7.90;99.90;;;;;;6273479;22;20022;-94
2023/01/10 04:16:28;;;;;;;19.50;3.92;;;7.90;99.90;;;;;;6271654;22;20003;-92
2023/01/10 04:18:53;;;;;;;16.83;4.22;;;8.00;99.90;;;;;;6273117;22;20395;-93
2023/01/10 04:21:19;;;;;;;16.92;3.92;;;7.90;99.90;;;;;;6273426;22;20087;-94
2023/01/10 04:23:45;;;;;;;21.27;4.13;;;8.00;99.90;;;;;;6273406;22;20008;-93
2023/01/10 04:26:11;;;;;;;18.73;4.53;;;8.00;99.90;;;;;;6249235;22;20078;-93
2023/01/10 04:28:37;;;;;;;15.75;3.53;;;8.10;99.90;;;;;;6288454;22;20003;-93
2023/01/10 04:31:03;;;;;;;18.63;4.93;;;8.10;99.90;;;;;;6294239;22;20056;-92
2023/01/10 04:33:29;;;;;;;21.80;4.10;;;8.10;99.90;;;;;;6296119;22;20075;-92
2023/01/10 04:35:54;;;;;;;20.60;3.90;;;8.20;99.90;;;;;;6257415;22;20094;-91
2023/01/10 04:38:20;;;;;;;20.90;4.35;;;8.30;99.90;;;;;;6247718;22;20004;-94
2023/01/10 04:40:54;;;;;;;20.25;4.10;;;8.10;99.90;;;;;;6273634;22;20066;-90
2023/01/10 04:43:20;;;;;;;20.55;4.55;;;8.30;99.90;;;;;;6272650;22;20007;-92
2023/01/10 04:45:46;;;;;;;22.10;4.57;;;8.10;99.90;;;;;;6246102;22;20117;-90
2023/01/10 04:48:12;;;;;;;17.73;4.60;;;8.20;99.90;;;;;;6246826;22;20010;-92
2023/01/10 04:50:38;;;;;;;17.35;3.50;;;8.20;99.90;;;;;;6246491;22;20004;-91
2023/01/10 04:53:03;;;;;;;21.05;4.03;;;8.30;99.90;;;;;;6246027;22;20335;-93
2023/01/10 04:55:31;;;;;;;27.23;4.38;;;8.30;99.90;;;;;;6246406;22;20061;-93
2023/01/10 04:57:57;;;;;;;16.23;3.80;;;8.20;99.90;;;;;;6273895;22;20370;-92
2023/01/10 05:00:22;;;;;;;18.60;3.67;;;8.20;99.90;;;;;;6247836;22;20064;-93
2023/01/10 05:02:48;;;;;;;20.55;4.05;;;8.20;99.90;;;;;;6274538;22;20007;-88
2023/01/10 05:05:14;;;;;;;17.13;3.65;;;8.20;99.90;;;;;;6248485;22;20008;-93
2023/01/10 05:07:40;;;;;;;22.42;4.03;;;8.30;99.90;;;;;;6274583;22;20454;-92
2023/01/10 05:10:07;;;;;;;22.15;4.07;;;8.30;99.90;;;;;;6274780;22;19999;-93
2023/01/10 05:12:33;;;;;;;18.83;3.70;;;8.30;99.90;;;;;;6274322;22;20022;-93
2023/01/10 05:14:59;;;;;;;20.70;4.25;;;8.40;99.90;;;;;;6247218;22;20007;-93
2023/01/10 05:17:25;;;;;;;27.30;5.05;;;8.30;99.90;;;;;;6274451;22;20003;-94
2023/01/10 05:19:51;;;;;;;20.00;3.33;;;8.60;99.90;;;;;;6247017;22;20145;-92
2023/01/10 05:22:17;;;;;;;25.10;3.90;;;8.40;99.90;;;;;;6275503;22;20000;-94
2023/01/10 05:24:42;;;;;;;19.73;3.55;;;8.60;99.90;;;;;;6258582;22;20436;-93
2023/01/10 05:27:08;;;;;;;21.17;3.90;;;8.40;99.90;;;;;;6275745;22;20042;-94
2023/01/10 05:29:34;;;;;;;20.83;3.63;;;8.40;99.90;;;;;;6274285;22;20000;-93
2023/01/10 05:32:00;;;;;;;23.77;4.65;;;8.80;99.90;;;;;;6276966;22;20011;-91
2023/01/10 05:34:27;;;;;;;18.45;3.45;;;8.50;99.90;;;;;;6275895;22;20023;-92
2023/01/10 05:36:52;;;;;;;14.93;3.30;;;8.40;99.90;;;;;;6271453;22;20004;-87
2023/01/10 05:39:18;;;;;;;19.48;4.38;;;8.50;99.90;;;;;;6276687;22;20078;-89
2023/01/10 05:41:44;;;;;;;18.88;3.90;;;8.50;99.90;;;;;;6277887;22;20006;-92
2023/01/10 05:44:09;;;;;;;16.33;3.88;;;8.40;99.90;;;;;;6271521;22;20284;-91
2023/01/10 05:46:35;;;;;;;15.82;3.42;;;8.50;99.90;;;;;;6272728;22;20012;-90
2023/01/10 05:49:01;;;;;;;18.95;3.58;;;8.50;99.90;;;;;;6273499;22;20000;-88
2023/01/10 05:51:28;;;;;;;16.55;2.95;;;8.40;99.90;;;;;;6274992;22;20008;-92
2023/01/10 05:55:09;;;;;;;;;;;;;;;;;;;;;
2023/01/10 06:42:02;;;;;;;11.38;2.65;;;8.70;99.90;;;;;;6243519;23;20008;-93
2023/01/10 12:07:24;;;;;;;;;;;;;;;;;;;;;
2023/01/10 12:09:58;;;;;;;24.08;4.50;;;13.50;99.90;;;;;;6242296;23;20063;-91
2023/01/10 12:13:13;;;;;;;;;;;;;;;;;;;;;
2023/01/10 12:16:05;;;;;;;27.75;5.00;;;13.50;99.90;;;;;;6242450;23;20087;-92
2023/01/10 12:18:41;;;;;;;27.23;5.13;;;13.50;99.90;;;;;;6241228;23;20012;-93
2023/01/10 12:21:16;;;;;;;30.50;4.55;;;13.60;99.90;;;;;;6218625;23;20026;-91
2023/01/10 12:23:57;;;;;;;31.00;4.97;;;13.70;99.90;;;;;;6221234;23;20007;-91
2023/01/10 12:26:49;;;;;;;32.97;5.45;;;13.70;99.90;;;;;;6237977;23;20011;-92
2023/01/10 12:29:33;;;;;;;;;;;;;;;;;;;;;
2023/01/10 12:32:12;;;;;;;;;;;;;;;;;;;;;
2023/01/10 12:35:06;;;;;;;;;;;;;;;;;;;;;
2023/01/10 12:38:19;;;;;;;36.90;5.57;;;14.10;99.90;;;;;;6243739;23;20078;-93
2023/01/10 12:45:09;;;;;;;;;;;;;;;;;;;;;
2023/01/10 12:48:00;;;;;;;34.22;6.10;;;14.10;99.90;;;;;;6235626;23;20008;-92
2023/01/10 12:54:30;;;;;;;;;;;;;;;;;;;;;
2023/01/10 12:57:19;;;;;;;;;;;14.10;99.90;;;;;;6239647;23;20079;-94
2023/01/10 13:00:01;;;;;;;;;;;;;;;;;;;;;
2023/01/10 13:03:06;;;;;;;;;;;;;;;;;;;;;
2023/01/10 13:05:35;;;;;;;33.10;5.50;;;14.00;99.90;;;;;;6243162;23;20515;-92
2023/01/10 13:08:23;;;;;;;39.30;6.10;;;14.00;99.90;;;;;;6243509;23;20232;-95
2023/01/10 13:11:13;;;;;;;33.55;5.55;;;14.00;99.90;;;;;;6242993;23;19997;-94
2023/01/10 13:14:07;;;;;;;32.70;4.95;;;13.90;99.90;;;;;;6216617;23;20437;-92
2023/01/10 13:16:44;;;;;;;32.08;4.95;;;13.90;99.90;;;;;;6216524;23;20004;-92
2023/01/10 13:19:23;;;;;;;;;;;;;;;;;;;;;
2023/01/10 13:22:22;;;;;;;;;;;;;;;;;;;;;
2023/01/10 13:25:26;;;;;;;30.88;5.00;;;13.90;99.90;;;;;;6242723;23;20512;-93
2023/01/10 13:28:15;;;;;;;;;;;;;;;;;;;;;
2023/01/10 13:31:00;;;;;;;34.75;5.57;;;13.80;99.90;;;;;;6244601;23;20083;-91
2023/01/10 13:34:04;;;;;;;;;;;;;;;;;;;;;
2023/01/10 13:36:50;;;;;;;29.23;4.55;;;13.90;99.90;;;;;;6246380;23;20332;-93
2023/01/10 13:39:54;;;;;;;34.30;5.38;;;13.90;99.90;;;;;;6216789;23;20010;-92
2023/01/10 13:49:02;;;;;;;28.15;4.80;;;14.00;99.90;;;;;;6091661;23;20037;-93
2023/01/10 13:51:31;;;;;;;31.88;5.82;;;13.90;99.90;;;;;;6091324;23;20371;-92
2023/01/10 13:54:03;;;;;;;34.17;4.93;;;13.90;99.90;;;;;;6067283;23;20014;-94
2023/01/10 13:56:42;;;;;;;;;;;;;;;;;;;;;
2023/01/10 14:02:27;;;;;;;28.83;4.32;;;13.90;99.90;;;;;;6091219;23;20042;-92
2023/01/10 14:05:09;;;;;;;27.38;4.53;;;13.80;99.90;;;;;;6067727;23;20006;-91
2023/01/10 14:08:00;;;;;;;;;;;;;;;;;;;;;
2023/01/10 14:10:56;;;;;;;30.33;4.53;;;13.80;99.90;;;;;;6242308;23;20405;-93
2023/01/10 14:13:45;;;;;;;;;;;;;;;;;;;;;
2023/01/10 14:17:01;;;;;;;27.38;4.28;;;13.70;99.90;;;;;;6243475;23;20083;-91
2023/01/10 14:20:08;;;;;;;25.63;4.28;;;13.70;99.90;;;;;;6240870;23;20000;-92
2023/01/10 14:22:37;;;;;;;22.33;4.57;;;13.80;99.90;;;;;;6242339;23;20004;-94
2023/01/10 14:25:42;;;;;;;18.90;3.88;;;13.80;99.90;;;;;;6215721;23;20015;-93
2023/01/10 14:29:04;;;;;;;;;;;;;;;;;;;;;
2023/01/10 14:31:37;;;;;;;23.70;4.13;;;13.60;99.90;;;;;;6215534;23;20088;-91
2023/01/10 14:37:55;;;;;;;17.00;2.97;;;13.70;99.90;;;;;;6121351;23;20002;-92
2023/01/10 14:44:12;;;;;;;;;;;;;;;;;;;;;
2023/01/10 14:47:44;;;;;;;;;;;;;;;;;;;;;
2023/01/10 14:50:52;;;;;;;;;;;;;;;;;;;;;
2023/01/10 14:57:16;;;;;;;;;;;;;;;;;;;;;
2023/01/10 15:06:20;;;;;;;19.08;2.67;;;13.60;99.90;;;;;;6098905;23;20022;-91
2023/01/10 15:09:09;;;;;;;;;;;;;;;;;;;;;
2023/01/10 15:25:06;;;;;;;;;;;;;;;;;;;;;
2023/01/10 15:30:59;;;;;;;;;;;;;;;;;;;;;
2023/01/10 15:33:55;;;;;;;20.65;3.42;;;13.40;99.90;;;;;;6061897;23;20082;-92
2023/01/10 15:37:35;;;;;;;;;;;;;;;;;;;;;
2023/01/10 16:08:36;;;;;;;;;;;;;;;;;;;;;
2023/01/10 16:37:20;;;;;;;11.60;2.72;;;13.10;99.90;;;;;;5686055;25;20048;-94
2023/01/10 17:12:40;;;;;;;16.25;2.70;;;13.10;99.90;;;;;;5637609;25;20418;-91
2023/01/10 17:15:50;;;;;;;10.55;2.83;;;13.10;99.90;;;;;;5713980;24;20040;-94
2023/01/10 17:19:07;;;;;;;12.27;2.70;;;13.10;99.90;;;;;;5877716;24;20010;-94
2023/01/10 17:48:08;;;;;;;20.88;3.40;;;13.00;99.90;;;;;;6136577;22;1344149;-92
2023/01/10 17:58:32;;;;;;;;;;;;;;;;;;;;;
2023/01/10 18:01:23;;;;;;;22.90;3.72;;;13.10;99.90;;;;;;5849802;24;20085;-93
2023/01/10 18:04:41;;;;;;;;;;;;;;;;;;;;;
2023/01/10 18:08:02;;;;;;;19.52;3.40;;;13.20;99.90;;;;;;5795550;24;20544;-92
2023/01/10 18:11:40;;;;;;;;;;;;;;;;;;;;;
2023/01/10 18:19:57;;;;;;;16.33;3.17;;;13.20;99.90;;;;;;5928862;24;20012;-93
2023/01/10 18:26:18;;;;;;;19.42;3.45;;;13.20;99.90;;;;;;6130803;23;20016;-93
2023/01/10 18:28:44;;;;;;;19.45;3.88;;;13.20;99.90;;;;;;6128659;23;20033;-90
2023/01/10 18:31:18;;;;;;;18.98;3.83;;;13.20;99.90;;;;;;6129549;23;20331;-90
2023/01/10 18:33:45;;;;;;;18.02;3.55;;;13.20;99.90;;;;;;6128585;23;20025;-94
2023/01/10 18:36:55;;;;;;;;;;;;;;;;;;;;;
2023/01/10 18:40:04;;;;;;;;;;;;;;;;;;;;;
2023/01/10 18:43:13;;;;;;;16.17;3.63;;;13.30;99.90;;;;;;6040919;23;20086;-93
2023/01/10 18:47:06;;;;;;;19.13;3.30;;;13.30;99.90;;;;;;6037482;23;20348;-94
2023/01/10 19:08:15;;;;;;;;;;;;;;;;;;;;;
2023/01/10 19:17:28;;;;;;;;;;;;;;;;;;;;;
2023/01/10 19:27:30;;;;;;;15.23;3.40;;;13.30;99.90;;;;;;5696405;25;20069;-92
2023/01/10 19:30:01;;;;;;;13.10;3.00;;;13.30;99.90;;;;;;5753700;24;20094;-90
2023/01/10 19:32:37;;;;;;;17.42;4.60;;;13.30;99.90;;;;;;5942095;23;20014;-91
2023/01/10 19:35:03;;;;;;;15.05;3.10;;;13.30;99.90;;;;;;5982146;23;20098;-91
2023/01/10 19:37:52;;;;;;;13.80;3.47;;;13.30;99.90;;;;;;5981949;23;20015;-92
2023/01/10 19:43:59;;;;;;;;;;;;;;;;;;;;;
2023/01/10 19:57:33;;;;;;;14.40;3.83;;;13.30;99.90;;;;;;5788173;24;20011;-93
2023/01/10 20:03:37;;;;;;;14.02;2.80;;;13.20;99.90;;;;;;5789834;24;20485;-93
2023/01/10 20:06:15;;;;;;;17.25;3.30;;;13.20;99.90;;;;;;5869074;24;20044;-93
2023/01/10 20:08:41;;;;;;;16.20;2.92;;;13.20;99.90;;;;;;5896711;24;20562;-92
2023/01/10 20:11:16;;;;;;;14.40;3.65;;;13.20;99.90;;;;;;5903336;24;20035;-92
2023/01/10 20:14:11;;;;;;;17.20;3.13;;;13.20;99.90;;;;;;5903234;24;20503;-92
2023/01/10 20:24:09;;;;;;;;;;;;;;;;;;;;;
2023/01/10 21:26:13;;;;;;;;;;;;;;;;;;;;;
2023/01/10 21:46:47;;;;;;;;;;;;;;;;;;;;;
2023/01/10 22:06:22;;;;;;;3.67;1.20;;;13.10;99.90;;;;;;5877755;24;20066;-93
